createdAt,value
2019-01-12T00:01:43.000Z,100963
2019-01-12T00:03:43.000Z,100969
2019-01-12T00:05:28.000Z,100964
2019-01-12T00:06:43.000Z,100967
2019-01-12T00:08:43.000Z,100964
2019-01-12T00:10:43.000Z,100958
2019-01-12T00:12:43.000Z,100957
2019-01-12T00:14:28.000Z,100959
2019-01-12T00:15:43.000Z,100961
2019-01-12T00:17:43.000Z,100956
2019-01-12T00:19:43.000Z,100954
2019-01-12T00:20:43.000Z,100963
2019-01-12T00:22:43.000Z,100963
2019-01-12T00:24:28.000Z,100962
2019-01-12T00:26:43.000Z,100963
2019-01-12T00:28:43.000Z,100958
2019-01-12T00:30:43.000Z,100956
2019-01-12T00:32:43.000Z,100955
2019-01-12T00:33:43.000Z,100959
2019-01-12T00:35:43.000Z,100962
2019-01-12T00:37:43.000Z,100958
2019-01-12T00:39:28.000Z,100953
2019-01-12T00:40:43.000Z,100953
2019-01-12T00:42:43.000Z,100959
2019-01-12T00:43:43.000Z,100944
2019-01-12T00:44:43.000Z,100947
2019-01-12T00:45:43.000Z,100946
2019-01-12T00:47:43.000Z,100950
2019-01-12T00:49:43.000Z,100947
2019-01-12T00:51:43.000Z,100952
2019-01-12T00:53:43.000Z,100957
2019-01-12T00:55:28.000Z,100957
2019-01-12T00:56:43.000Z,100957
2019-01-12T00:58:42.000Z,100956
2019-01-12T01:00:42.000Z,100959
2019-01-12T01:02:42.000Z,100964
2019-01-12T01:04:42.000Z,100955
2019-01-12T01:06:42.000Z,100959
2019-01-12T01:07:42.000Z,100953
2019-01-12T01:08:42.000Z,100955
2019-01-12T01:10:42.000Z,100949
2019-01-12T01:11:42.000Z,100952
2019-01-12T01:13:42.000Z,100951
2019-01-12T01:15:42.000Z,100940
2019-01-12T01:17:27.000Z,100949
2019-01-12T01:18:42.000Z,100953
2019-01-12T01:20:42.000Z,100944
2019-01-12T01:21:42.000Z,100946
2019-01-12T01:22:42.000Z,100951
2019-01-12T01:24:42.000Z,100946
2019-01-12T01:26:42.000Z,100952
2019-01-12T01:28:42.000Z,100952
2019-01-12T01:29:42.000Z,100950
2019-01-12T01:31:42.000Z,100956
2019-01-12T01:32:42.000Z,100950
2019-01-12T01:34:27.000Z,100957
2019-01-12T01:35:42.000Z,100952
2019-01-12T01:37:42.000Z,100953
2019-01-12T01:38:42.000Z,100950
2019-01-12T01:40:42.000Z,100955
2019-01-12T01:41:42.000Z,100952
2019-01-12T01:43:27.000Z,100953
2019-01-12T01:44:42.000Z,100953
2019-01-12T01:46:42.000Z,100958
2019-01-12T01:48:42.000Z,100960
2019-01-12T01:50:27.000Z,100962
2019-01-12T01:51:42.000Z,100966
2019-01-12T01:52:42.000Z,100965
2019-01-12T01:54:42.000Z,100967
2019-01-12T01:56:42.000Z,100963
2019-01-12T01:58:27.000Z,100962
2019-01-12T01:59:42.000Z,100961
2019-01-12T02:01:43.000Z,100955
2019-01-12T02:02:43.000Z,100958
2019-01-12T02:04:43.000Z,100954
2019-01-12T02:06:43.000Z,100950
2019-01-12T02:08:13.000Z,100951
2019-01-12T02:09:43.000Z,100946
2019-01-12T02:11:43.000Z,100943
2019-01-12T02:12:43.000Z,100949
2019-01-12T02:14:28.000Z,100938
2019-01-12T02:15:43.000Z,100938
2019-01-12T02:16:43.000Z,100932
2019-01-12T02:17:43.000Z,100942
2019-01-12T02:19:28.000Z,100940
2019-01-12T02:20:43.000Z,100933
2019-01-12T02:22:43.000Z,100934
2019-01-12T02:24:28.000Z,100933
2019-01-12T02:25:43.000Z,100929
2019-01-12T02:26:43.000Z,100938
2019-01-12T02:28:43.000Z,100933
2019-01-12T02:30:43.000Z,100929
2019-01-12T02:32:43.000Z,100934
2019-01-12T02:34:43.000Z,100933
2019-01-12T02:36:43.000Z,100933
2019-01-12T02:38:28.000Z,100927
2019-01-12T02:39:43.000Z,100932
2019-01-12T02:40:43.000Z,100927
2019-01-12T02:42:28.000Z,100926
2019-01-12T02:43:43.000Z,100926
2019-01-12T02:44:43.000Z,100924
2019-01-12T02:46:43.000Z,100921
2019-01-12T02:48:43.000Z,100917
2019-01-12T02:50:43.000Z,100910
2019-01-12T02:52:43.000Z,100912
2019-01-12T02:54:28.000Z,100907
2019-01-12T02:55:43.000Z,100909
2019-01-12T02:57:43.000Z,100907
2019-01-12T02:58:43.000Z,100908
2019-01-12T03:00:43.000Z,100901
2019-01-12T03:01:43.000Z,100901
2019-01-12T03:03:43.000Z,100902
2019-01-12T03:05:42.000Z,100894
2019-01-12T03:07:42.000Z,100896
2019-01-12T03:09:42.000Z,100892
2019-01-12T03:11:42.000Z,100892
2019-01-12T03:12:42.000Z,100891
2019-01-12T03:14:42.000Z,100890
2019-01-12T03:15:42.000Z,100894
2019-01-12T03:17:42.000Z,100889
2019-01-12T03:19:42.000Z,100891
2019-01-12T03:20:42.000Z,100889
2019-01-12T03:22:27.000Z,100885
2019-01-12T03:23:42.000Z,100887
2019-01-12T03:25:12.000Z,100883
2019-01-12T03:26:42.000Z,100881
2019-01-12T03:27:42.000Z,100882
2019-01-12T03:29:42.000Z,100882
2019-01-12T03:31:42.000Z,100878
2019-01-12T03:32:42.000Z,100875
2019-01-12T03:33:42.000Z,100869
2019-01-12T03:35:42.000Z,100874
2019-01-12T03:37:27.000Z,100869
2019-01-12T03:38:42.000Z,100873
2019-01-12T03:40:42.000Z,100870
2019-01-12T03:42:42.000Z,100865
2019-01-12T03:44:42.000Z,100862
2019-01-12T03:45:42.000Z,100865
2019-01-12T03:47:42.000Z,100867
2019-01-12T03:48:42.000Z,100869
2019-01-12T03:50:27.000Z,100869
2019-01-12T03:51:42.000Z,100861
2019-01-12T03:52:42.000Z,100861
2019-01-12T03:54:42.000Z,100851
2019-01-12T03:56:42.000Z,100848
2019-01-12T03:58:42.000Z,100843
2019-01-12T04:00:42.000Z,100849
2019-01-12T04:02:42.000Z,100848
2019-01-12T04:03:42.000Z,100851
2019-01-12T04:05:42.000Z,100850
2019-01-12T04:06:42.000Z,100853
2019-01-12T04:08:27.000Z,100848
2019-01-12T04:09:42.000Z,100844
2019-01-12T04:11:42.000Z,100839
2019-01-12T04:13:12.000Z,100838
2019-01-12T04:14:42.000Z,100831
2019-01-12T04:15:42.000Z,100831
2019-01-12T04:17:42.000Z,100829
2019-01-12T04:19:42.000Z,100837
2019-01-12T04:20:42.000Z,100835
2019-01-12T04:22:27.000Z,100832
2019-01-12T04:23:42.000Z,100823
2019-01-12T04:25:27.000Z,100822
2019-01-12T04:27:42.000Z,100830
2019-01-12T04:28:42.000Z,100831
2019-01-12T04:30:42.000Z,100826
2019-01-12T04:32:42.000Z,100821
2019-01-12T04:33:42.000Z,100822
2019-01-12T04:35:27.000Z,100822
2019-01-12T04:36:42.000Z,100824
2019-01-12T04:38:27.000Z,100821
2019-01-12T04:40:42.000Z,100827
2019-01-12T04:42:42.000Z,100821
2019-01-12T04:44:42.000Z,100826
2019-01-12T04:45:42.000Z,100827
2019-01-12T04:47:42.000Z,100833
2019-01-12T04:48:42.000Z,100830
2019-01-12T04:49:42.000Z,100823
2019-01-12T04:51:42.000Z,100833
2019-01-12T04:53:42.000Z,100836
2019-01-12T04:54:42.000Z,100826
2019-01-12T04:55:42.000Z,100833
2019-01-12T04:57:42.000Z,100838
2019-01-12T04:58:42.000Z,100832
2019-01-12T04:59:42.000Z,100837
2019-01-12T05:01:42.000Z,100833
2019-01-12T05:03:42.000Z,100828
2019-01-12T05:04:42.000Z,100828
2019-01-12T05:06:42.000Z,100824
2019-01-12T05:07:42.000Z,100828
2019-01-12T05:09:42.000Z,100829
2019-01-12T05:11:42.000Z,100829
2019-01-12T05:13:27.000Z,100836
2019-01-12T05:14:27.000Z,100837
2019-01-12T05:15:42.000Z,100834
2019-01-12T05:17:27.000Z,100835
2019-01-12T05:18:42.000Z,100837
2019-01-12T05:20:12.000Z,100837
2019-01-12T05:21:42.000Z,100837
2019-01-12T05:23:42.000Z,100840
2019-01-12T05:25:42.000Z,100837
2019-01-12T05:27:42.000Z,100833
2019-01-12T05:29:42.000Z,100834
2019-01-12T05:31:42.000Z,100831
2019-01-12T05:32:42.000Z,100831
2019-01-12T05:33:42.000Z,100832
2019-01-12T05:35:27.000Z,100832
2019-01-12T05:36:42.000Z,100836
2019-01-12T05:37:42.000Z,100821
2019-01-12T05:39:42.000Z,100828
2019-01-12T05:40:42.000Z,100834
2019-01-12T05:42:42.000Z,100832
2019-01-12T05:43:42.000Z,100828
2019-01-12T05:45:42.000Z,100833
2019-01-12T05:47:42.000Z,100841
2019-01-12T05:49:42.000Z,100830
2019-01-12T05:50:42.000Z,100835
2019-01-12T05:52:42.000Z,100840
2019-01-12T05:53:42.000Z,100842
2019-01-12T05:55:42.000Z,100831
2019-01-12T05:56:42.000Z,100833
2019-01-12T05:58:42.000Z,100835
2019-01-12T06:00:42.000Z,100831
2019-01-12T06:01:42.000Z,100830
2019-01-12T06:03:42.000Z,100824
2019-01-12T06:05:42.000Z,100820
2019-01-12T06:07:42.000Z,100820
2019-01-12T06:09:42.000Z,100819
2019-01-12T06:11:42.000Z,100815
2019-01-12T06:13:12.000Z,100813
2019-01-12T06:14:42.000Z,100817
2019-01-12T06:15:42.000Z,100811
2019-01-12T06:17:43.000Z,100810
2019-01-12T06:19:43.000Z,100815
2019-01-12T06:21:28.000Z,100813
2019-01-12T06:22:43.000Z,100816
2019-01-12T06:24:43.000Z,100809
2019-01-12T06:25:43.000Z,100807
2019-01-12T06:27:43.000Z,100807
2019-01-12T06:29:43.000Z,100808
2019-01-12T06:31:13.000Z,100800
2019-01-12T06:32:43.000Z,100801
2019-01-12T06:33:43.000Z,100797
2019-01-12T06:34:43.000Z,100796
2019-01-12T06:36:43.000Z,100792
2019-01-12T06:38:43.000Z,100793
2019-01-12T06:40:28.000Z,100789
2019-01-12T06:41:43.000Z,100794
2019-01-12T06:43:43.000Z,100787
2019-01-12T06:45:43.000Z,100772
2019-01-12T06:46:43.000Z,100777
2019-01-12T06:47:43.000Z,100778
2019-01-12T06:49:43.000Z,100775
2019-01-12T06:51:28.000Z,100772
2019-01-12T06:52:43.000Z,100774
2019-01-12T06:54:43.000Z,100769
2019-01-12T06:55:43.000Z,100766
2019-01-12T06:56:43.000Z,100771
2019-01-12T06:58:43.000Z,100763
2019-01-12T07:00:43.000Z,100759
2019-01-12T07:02:43.000Z,100759
2019-01-12T07:03:43.000Z,100756
2019-01-12T07:04:43.000Z,100759
2019-01-12T07:06:43.000Z,100753
2019-01-12T07:08:28.000Z,100755
2019-01-12T07:09:43.000Z,100753
2019-01-12T07:11:43.000Z,100743
2019-01-12T07:13:43.000Z,100738
2019-01-12T07:14:43.000Z,100746
2019-01-12T07:15:43.000Z,100744
2019-01-12T07:17:43.000Z,100739
2019-01-12T07:19:43.000Z,100747
2019-01-12T07:20:43.000Z,100746
2019-01-12T07:21:43.000Z,100749
2019-01-12T07:22:43.000Z,100755
2019-01-12T07:24:12.000Z,100754
2019-01-12T07:25:43.000Z,100749
2019-01-12T07:27:43.000Z,100750
2019-01-12T07:29:43.000Z,100738
2019-01-12T07:31:43.000Z,100738
2019-01-12T07:32:43.000Z,100734
2019-01-12T07:33:43.000Z,100734
2019-01-12T07:34:43.000Z,100731
2019-01-12T07:36:43.000Z,100725
2019-01-12T07:38:43.000Z,100724
2019-01-12T07:40:43.000Z,100723
2019-01-12T07:41:43.000Z,100723
2019-01-12T07:43:43.000Z,100730
2019-01-12T07:44:43.000Z,100731
2019-01-12T07:45:43.000Z,100721
2019-01-12T07:47:43.000Z,100717
2019-01-12T07:49:43.000Z,100722
2019-01-12T07:51:43.000Z,100722
2019-01-12T07:53:43.000Z,100714
2019-01-12T07:54:43.000Z,100707
2019-01-12T07:56:43.000Z,100707
2019-01-12T07:57:43.000Z,100704
2019-01-12T07:59:43.000Z,100706
2019-01-12T08:01:43.000Z,100698
2019-01-12T08:02:43.000Z,100695
2019-01-12T08:04:43.000Z,100690
2019-01-12T08:06:27.000Z,100684
2019-01-12T08:07:43.000Z,100683
2019-01-12T08:09:43.000Z,100688
2019-01-12T08:10:43.000Z,100694
2019-01-12T08:11:43.000Z,100684
2019-01-12T08:12:43.000Z,100683
2019-01-12T08:14:27.000Z,100683
2019-01-12T08:15:43.000Z,100684
2019-01-12T08:16:43.000Z,100676
2019-01-12T08:17:43.000Z,100678
2019-01-12T08:19:43.000Z,100677
2019-01-12T08:20:43.000Z,100671
2019-01-12T08:22:43.000Z,100660
2019-01-12T08:24:42.000Z,100666
2019-01-12T08:25:42.000Z,100673
2019-01-12T08:27:42.000Z,100661
2019-01-12T08:28:42.000Z,100663
2019-01-12T08:30:42.000Z,100668
2019-01-12T08:32:42.000Z,100654
2019-01-12T08:34:27.000Z,100643
2019-01-12T08:36:42.000Z,100647
2019-01-12T08:37:42.000Z,100638
2019-01-12T08:39:42.000Z,100639
2019-01-12T08:40:42.000Z,100632
2019-01-12T08:42:42.000Z,100641
2019-01-12T08:43:42.000Z,100634
2019-01-12T08:44:42.000Z,100638
2019-01-12T08:46:42.000Z,100645
2019-01-12T08:47:42.000Z,100650
2019-01-12T08:49:42.000Z,100648
2019-01-12T08:51:42.000Z,100652
2019-01-12T08:53:42.000Z,100665
2019-01-12T08:55:42.000Z,100674
2019-01-12T08:57:42.000Z,100674
2019-01-12T08:59:42.000Z,100666
2019-01-12T09:01:42.000Z,100654
2019-01-12T09:03:42.000Z,100639
2019-01-12T09:05:42.000Z,100645
2019-01-12T09:07:42.000Z,100633
2019-01-12T09:08:42.000Z,100638
2019-01-12T09:10:27.000Z,100631
2019-01-12T09:11:42.000Z,100630
2019-01-12T09:12:42.000Z,100622
2019-01-12T09:14:27.000Z,100624
2019-01-12T09:16:42.000Z,100610
2019-01-12T09:17:42.000Z,100610
2019-01-12T09:19:42.000Z,100613
2019-01-12T09:20:42.000Z,100610
2019-01-12T09:22:42.000Z,100612
2019-01-12T09:24:27.000Z,100606
2019-01-12T09:25:42.000Z,100605
2019-01-12T09:26:42.000Z,100611
2019-01-12T09:28:13.000Z,100612
2019-01-12T09:29:43.000Z,100608
2019-01-12T09:30:43.000Z,100601
2019-01-12T09:32:43.000Z,100592
2019-01-12T09:34:43.000Z,100595
2019-01-12T09:36:28.000Z,100593
2019-01-12T09:37:43.000Z,100599
2019-01-12T09:39:43.000Z,100593
2019-01-12T09:41:28.000Z,100591
2019-01-12T09:42:43.000Z,100585
2019-01-12T09:44:43.000Z,100574
2019-01-12T09:45:43.000Z,100584
2019-01-12T09:47:43.000Z,100577
2019-01-12T09:49:43.000Z,100573
2019-01-12T09:51:28.000Z,100569
2019-01-12T09:52:43.000Z,100565
2019-01-12T09:54:43.000Z,100560
2019-01-12T09:56:28.000Z,100558
2019-01-12T09:57:43.000Z,100548
2019-01-12T09:59:43.000Z,100532
2019-01-12T10:00:43.000Z,100540
2019-01-12T10:02:43.000Z,100551
2019-01-12T10:04:43.000Z,100546
2019-01-12T10:05:43.000Z,100547
2019-01-12T10:07:43.000Z,100539
2019-01-12T10:09:28.000Z,100538
2019-01-12T10:10:43.000Z,100529
2019-01-12T10:12:43.000Z,100527
2019-01-12T10:13:43.000Z,100523
2019-01-12T10:15:28.000Z,100524
2019-01-12T10:16:43.000Z,100529
2019-01-12T10:17:43.000Z,100535
2019-01-12T10:19:43.000Z,100530
2019-01-12T10:20:43.000Z,100524
2019-01-12T10:22:28.000Z,100517
2019-01-12T10:24:43.000Z,100521
2019-01-12T10:26:43.000Z,100515
2019-01-12T10:28:43.000Z,100504
2019-01-12T10:30:28.000Z,100490
2019-01-12T10:31:43.000Z,100493
2019-01-12T10:33:43.000Z,100495
2019-01-12T10:35:28.000Z,100496
2019-01-12T10:36:43.000Z,100492
2019-01-12T10:38:28.000Z,100487
2019-01-12T10:40:43.000Z,100486
2019-01-12T10:41:43.000Z,100477
2019-01-12T10:42:43.000Z,100487
2019-01-12T10:43:43.000Z,100480
2019-01-12T10:45:43.000Z,100471
2019-01-12T10:47:28.000Z,100473
2019-01-12T10:48:43.000Z,100473
2019-01-12T10:50:43.000Z,100475
2019-01-12T10:52:43.000Z,100480
2019-01-12T10:53:43.000Z,100472
2019-01-12T10:55:43.000Z,100459
2019-01-12T10:56:43.000Z,100463
2019-01-12T10:58:43.000Z,100455
2019-01-12T10:59:43.000Z,100460
2019-01-12T11:01:43.000Z,100455
2019-01-12T11:03:43.000Z,100445
2019-01-12T11:05:43.000Z,100436
2019-01-12T11:06:43.000Z,100430
2019-01-12T11:08:43.000Z,100436
2019-01-12T11:10:28.000Z,100429
2019-01-12T11:11:43.000Z,100411
2019-01-12T11:12:43.000Z,100415
2019-01-12T11:14:43.000Z,100418
2019-01-12T11:16:43.000Z,100418
2019-01-12T11:17:43.000Z,100408
2019-01-12T11:19:28.000Z,100415
2019-01-12T11:20:43.000Z,100410
2019-01-12T11:22:28.000Z,100395
2019-01-12T11:23:43.000Z,100395
2019-01-12T11:25:43.000Z,100398
2019-01-12T11:26:43.000Z,100404
2019-01-12T11:28:13.000Z,100388
2019-01-12T11:29:43.000Z,100396
2019-01-12T11:30:43.000Z,100384
2019-01-12T11:32:28.000Z,100387
2019-01-12T11:33:43.000Z,100385
2019-01-12T11:35:27.000Z,100384
2019-01-12T11:36:43.000Z,100375
2019-01-12T11:38:43.000Z,100368
2019-01-12T11:40:27.000Z,100362
2019-01-12T11:41:27.000Z,100361
2019-01-12T11:42:43.000Z,100356
2019-01-12T11:44:43.000Z,100357
2019-01-12T11:45:43.000Z,100356
2019-01-12T11:47:27.000Z,100355
2019-01-12T11:48:43.000Z,100354
2019-01-12T11:49:43.000Z,100348
2019-01-12T11:50:43.000Z,100349
2019-01-12T11:52:43.000Z,100344
2019-01-12T11:54:43.000Z,100325
2019-01-12T11:55:43.000Z,100334
2019-01-12T11:56:43.000Z,100328
2019-01-12T11:58:42.000Z,100326
2019-01-12T12:00:43.000Z,100323
2019-01-12T12:02:27.000Z,100309
2019-01-12T12:03:43.000Z,100310
2019-01-12T12:05:43.000Z,100312
2019-01-12T12:07:27.000Z,100295
2019-01-12T12:08:43.000Z,100289
2019-01-12T12:09:43.000Z,100287
2019-01-12T12:11:43.000Z,100293
2019-01-12T12:12:43.000Z,100289
2019-01-12T12:14:43.000Z,100283
2019-01-12T12:15:43.000Z,100281
2019-01-12T12:16:43.000Z,100278
2019-01-12T12:18:43.000Z,100281
2019-01-12T12:19:43.000Z,100272
2019-01-12T12:20:43.000Z,100271
2019-01-12T12:22:43.000Z,100274
2019-01-12T12:24:43.000Z,100255
2019-01-12T12:25:43.000Z,100251
2019-01-12T12:27:43.000Z,100245
2019-01-12T12:29:43.000Z,100239
2019-01-12T12:31:43.000Z,100241
2019-01-12T12:33:43.000Z,100226
2019-01-12T12:35:43.000Z,100226
2019-01-12T12:37:43.000Z,100224
2019-01-12T12:39:42.000Z,100212
2019-01-12T12:40:42.000Z,100209
2019-01-12T12:41:42.000Z,100209
2019-01-12T12:43:42.000Z,100210
2019-01-12T12:44:42.000Z,100206
2019-01-12T12:46:42.000Z,100192
2019-01-12T12:47:42.000Z,100204
2019-01-12T12:49:42.000Z,100193
2019-01-12T12:51:42.000Z,100186
2019-01-12T12:53:27.000Z,100185
2019-01-12T12:54:27.000Z,100178
2019-01-12T12:55:42.000Z,100183
2019-01-12T12:56:42.000Z,100180
2019-01-12T12:58:42.000Z,100180
2019-01-12T13:00:42.000Z,100177
2019-01-12T13:01:42.000Z,100171
2019-01-12T13:02:42.000Z,100172
2019-01-12T13:04:27.000Z,100159
2019-01-12T13:05:42.000Z,100165
2019-01-12T13:07:42.000Z,100159
2019-01-12T13:09:42.000Z,100159
2019-01-12T13:11:42.000Z,100152
2019-01-12T13:13:42.000Z,100146
2019-01-12T13:15:42.000Z,100139
2019-01-12T13:17:42.000Z,100137
2019-01-12T13:18:42.000Z,100133
2019-01-12T13:19:42.000Z,100135
2019-01-12T13:21:42.000Z,100124
2019-01-12T13:23:42.000Z,100126
2019-01-12T13:24:42.000Z,100122
2019-01-12T13:26:27.000Z,100120
2019-01-12T13:27:42.000Z,100119
2019-01-12T13:28:42.000Z,100114
2019-01-12T13:29:42.000Z,100103
2019-01-12T13:31:42.000Z,100114
2019-01-12T13:32:42.000Z,100109
2019-01-12T13:33:42.000Z,100108
2019-01-12T13:35:42.000Z,100094
2019-01-12T13:37:12.000Z,100097
2019-01-12T13:38:42.000Z,100097
2019-01-12T13:40:42.000Z,100099
2019-01-12T13:41:42.000Z,100098
2019-01-12T13:43:42.000Z,100094
2019-01-12T13:44:42.000Z,100095
2019-01-12T13:45:42.000Z,100089
2019-01-12T13:46:42.000Z,100090
2019-01-12T13:48:42.000Z,100087
2019-01-12T13:50:42.000Z,100087
2019-01-12T13:52:27.000Z,100087
2019-01-12T13:53:42.000Z,100078
2019-01-12T13:55:42.000Z,100071
2019-01-12T13:57:27.000Z,100071
2019-01-12T13:58:42.000Z,100067
2019-01-12T14:00:42.000Z,100066
2019-01-12T14:02:42.000Z,100061
2019-01-12T14:03:42.000Z,100059
2019-01-12T14:04:42.000Z,100057
2019-01-12T14:06:42.000Z,100056
2019-01-12T14:08:42.000Z,100049
2019-01-12T14:10:42.000Z,100045
2019-01-12T14:12:42.000Z,100054
2019-01-12T14:13:42.000Z,100047
2019-01-12T14:15:42.000Z,100046
2019-01-12T14:16:42.000Z,100045
2019-01-12T14:18:42.000Z,100039
2019-01-12T14:19:42.000Z,100034
2019-01-12T14:21:27.000Z,100046
2019-01-12T14:22:42.000Z,100044
2019-01-12T14:23:42.000Z,100041
2019-01-12T14:25:42.000Z,100037
2019-01-12T14:27:42.000Z,100034
2019-01-12T14:29:27.000Z,100046
2019-01-12T14:31:12.000Z,100038
2019-01-12T14:32:27.000Z,100039
2019-01-12T14:34:42.000Z,100035
2019-01-12T14:35:42.000Z,100036
2019-01-12T14:37:42.000Z,100038
2019-01-12T14:39:27.000Z,100033
2019-01-12T14:40:42.000Z,100027
2019-01-12T14:41:42.000Z,100024
2019-01-12T14:42:42.000Z,100036
2019-01-12T14:44:42.000Z,100027
2019-01-12T14:46:43.000Z,100028
2019-01-12T14:47:43.000Z,100029
2019-01-12T14:49:28.000Z,100026
2019-01-12T14:50:43.000Z,100026
2019-01-12T14:52:28.000Z,100031
2019-01-12T14:53:43.000Z,100024
2019-01-12T14:54:43.000Z,100037
2019-01-12T14:56:43.000Z,100037
2019-01-12T14:57:43.000Z,100045
2019-01-12T14:59:43.000Z,100044
2019-01-12T15:01:43.000Z,100052
2019-01-12T15:02:43.000Z,100045
2019-01-12T15:04:43.000Z,100040
2019-01-12T15:06:43.000Z,100042
2019-01-12T15:08:13.000Z,100046
2019-01-12T15:09:43.000Z,100050
2019-01-12T15:10:43.000Z,100049
2019-01-12T15:11:43.000Z,100047
2019-01-12T15:13:43.000Z,100055
2019-01-12T15:15:12.000Z,100044
2019-01-12T15:16:43.000Z,100047
2019-01-12T15:18:43.000Z,100049
2019-01-12T15:20:43.000Z,100045
2019-01-12T15:22:43.000Z,100043
2019-01-12T15:24:43.000Z,100040
2019-01-12T15:25:43.000Z,100041
2019-01-12T15:27:43.000Z,100038
2019-01-12T15:28:43.000Z,100025
2019-01-12T15:29:43.000Z,100030
2019-01-12T15:31:43.000Z,100039
2019-01-12T15:33:28.000Z,100041
2019-01-12T15:34:43.000Z,100039
2019-01-12T15:35:43.000Z,100036
2019-01-12T15:36:43.000Z,100038
2019-01-12T15:37:43.000Z,100033
2019-01-12T15:39:43.000Z,100029
2019-01-12T15:41:43.000Z,100031
2019-01-12T15:43:28.000Z,100020
2019-01-12T15:44:43.000Z,100022
2019-01-12T15:46:43.000Z,100010
2019-01-12T15:48:43.000Z,100019
2019-01-12T15:50:27.000Z,100011
2019-01-12T15:51:42.000Z,100014
2019-01-12T15:52:42.000Z,100015
2019-01-12T15:54:42.000Z,100010
2019-01-12T15:56:42.000Z,100011
2019-01-12T15:57:42.000Z,100008
2019-01-12T15:59:42.000Z,100007
2019-01-12T16:00:42.000Z,99997
2019-01-12T16:02:42.000Z,99995
2019-01-12T16:03:42.000Z,99999
2019-01-12T16:05:42.000Z,99984
2019-01-12T16:06:42.000Z,99979
2019-01-12T16:08:42.000Z,99977
2019-01-12T16:09:42.000Z,99976
2019-01-12T16:11:12.000Z,99974
2019-01-12T16:12:42.000Z,99984
2019-01-12T16:14:42.000Z,99981
2019-01-12T16:16:42.000Z,99983
2019-01-12T16:17:42.000Z,99987
2019-01-12T16:19:42.000Z,99990
2019-01-12T16:21:42.000Z,99994
2019-01-12T16:23:42.000Z,99984
2019-01-12T16:25:42.000Z,99984
2019-01-12T16:27:42.000Z,99981
2019-01-12T16:28:42.000Z,99978
2019-01-12T16:29:42.000Z,99989
2019-01-12T16:31:27.000Z,99980
2019-01-12T16:33:42.000Z,99993
2019-01-12T16:34:42.000Z,99985
2019-01-12T16:36:43.000Z,99975
2019-01-12T16:38:43.000Z,99982
2019-01-12T16:40:43.000Z,99977
2019-01-12T16:42:27.000Z,99973
2019-01-12T16:43:43.000Z,99982
2019-01-12T16:45:43.000Z,99972
2019-01-12T16:47:42.000Z,99968
2019-01-12T16:49:43.000Z,99969
2019-01-12T16:51:43.000Z,99964
2019-01-12T16:53:43.000Z,99952
2019-01-12T16:55:13.000Z,99949
2019-01-12T16:56:43.000Z,99938
2019-01-12T16:57:43.000Z,99942
2019-01-12T16:59:43.000Z,99939
2019-01-12T17:00:43.000Z,99941
2019-01-12T17:02:28.000Z,99938
2019-01-12T17:03:43.000Z,99931
2019-01-12T17:04:43.000Z,99928
2019-01-12T17:06:28.000Z,99925
2019-01-12T17:07:28.000Z,99930
2019-01-12T17:08:43.000Z,99925
2019-01-12T17:10:43.000Z,99941
2019-01-12T17:11:43.000Z,99930
2019-01-12T17:13:28.000Z,99925
2019-01-12T17:14:43.000Z,99927
2019-01-12T17:16:13.000Z,99924
2019-01-12T17:17:43.000Z,99927
2019-01-12T17:19:43.000Z,99933
2019-01-12T17:21:43.000Z,99935
2019-01-12T17:23:28.000Z,99936
2019-01-12T17:24:43.000Z,99937
2019-01-12T17:25:43.000Z,99924
2019-01-12T17:26:43.000Z,99932
2019-01-12T17:28:43.000Z,99924
2019-01-12T17:30:43.000Z,99921
2019-01-12T17:32:43.000Z,99924
2019-01-12T17:34:28.000Z,99914
2019-01-12T17:35:28.000Z,99917
2019-01-12T17:37:43.000Z,99922
2019-01-12T17:38:43.000Z,99927
2019-01-12T17:39:43.000Z,99931
2019-01-12T17:41:28.000Z,99924
2019-01-12T17:42:28.000Z,99930
2019-01-12T17:43:43.000Z,99923
2019-01-12T17:44:43.000Z,99927
2019-01-12T17:45:43.000Z,99924
2019-01-12T17:47:28.000Z,99920
2019-01-12T17:48:43.000Z,99919
2019-01-12T17:50:43.000Z,99927
2019-01-12T17:52:43.000Z,99916
2019-01-12T17:53:43.000Z,99926
2019-01-12T17:55:43.000Z,99931
2019-01-12T17:57:13.000Z,99924
2019-01-12T17:58:43.000Z,99923
2019-01-12T18:00:28.000Z,99925
2019-01-12T18:01:43.000Z,99929
2019-01-12T18:02:43.000Z,99934
2019-01-12T18:03:43.000Z,99935
2019-01-12T18:05:43.000Z,99939
2019-01-12T18:07:43.000Z,99935
2019-01-12T18:08:43.000Z,99938
2019-01-12T18:09:43.000Z,99940
2019-01-12T18:11:28.000Z,99941
2019-01-12T18:13:43.000Z,99948
2019-01-12T18:15:43.000Z,99953
2019-01-12T18:16:43.000Z,99948
2019-01-12T18:18:43.000Z,99935
2019-01-12T18:19:43.000Z,99941
2019-01-12T18:20:43.000Z,99937
2019-01-12T18:22:43.000Z,99940
2019-01-12T18:23:43.000Z,99948
2019-01-12T18:25:43.000Z,99956
2019-01-12T18:27:43.000Z,99947
2019-01-12T18:29:43.000Z,99941
2019-01-12T18:30:43.000Z,99940
2019-01-12T18:32:43.000Z,99947
2019-01-12T18:34:43.000Z,99952
2019-01-12T18:36:28.000Z,99959
2019-01-12T18:37:43.000Z,99955
2019-01-12T18:38:43.000Z,99946
2019-01-12T18:39:43.000Z,99950
2019-01-12T18:41:43.000Z,99944
2019-01-12T18:43:43.000Z,99955
2019-01-12T18:45:43.000Z,99950
2019-01-12T18:47:43.000Z,99952
2019-01-12T18:49:43.000Z,99949
2019-01-12T18:51:43.000Z,99946
2019-01-12T18:53:43.000Z,99945
2019-01-12T18:55:43.000Z,99947
2019-01-12T18:57:43.000Z,99948
2019-01-12T18:58:43.000Z,99951
2019-01-12T19:00:13.000Z,99951
2019-01-12T19:02:42.000Z,99954
2019-01-12T19:03:42.000Z,99951
2019-01-12T19:04:42.000Z,99956
2019-01-12T19:06:42.000Z,99952
2019-01-12T19:08:42.000Z,99952
2019-01-12T19:10:27.000Z,99958
2019-01-12T19:11:42.000Z,99959
2019-01-12T19:12:42.000Z,99956
2019-01-12T19:13:42.000Z,99955
2019-01-12T19:14:42.000Z,99958
2019-01-12T19:16:42.000Z,99953
2019-01-12T19:18:42.000Z,99948
2019-01-12T19:20:42.000Z,99947
2019-01-12T19:21:42.000Z,99945
2019-01-12T19:23:27.000Z,99950
2019-01-12T19:24:42.000Z,99937
2019-01-12T19:25:42.000Z,99941
2019-01-12T19:27:42.000Z,99935
2019-01-12T19:29:42.000Z,99936
2019-01-12T19:31:42.000Z,99933
2019-01-12T19:33:42.000Z,99936
2019-01-12T19:35:42.000Z,99934
2019-01-12T19:37:42.000Z,99932
2019-01-12T19:39:42.000Z,99927
2019-01-12T19:41:42.000Z,99939
2019-01-12T19:42:42.000Z,99934
2019-01-12T19:44:42.000Z,99935
2019-01-12T19:46:42.000Z,99928
2019-01-12T19:48:42.000Z,99928
2019-01-12T19:50:42.000Z,99933
2019-01-12T19:51:42.000Z,99934
2019-01-12T19:53:42.000Z,99924
2019-01-12T19:54:42.000Z,99933
2019-01-12T19:56:42.000Z,99928
2019-01-12T19:58:42.000Z,99924
2019-01-12T20:00:42.000Z,99919